sensor_id;sensor_type;location;lat;lon;timestamp;P1;durP1;ratioP1;P2;durP2;ratioP2
64619;SDS011;51029;51.058;13.826;2023-07-20T00:02:19;7.03;;;4.50;;
64619;SDS011;51029;51.058;13.826;2023-07-20T00:04:45;6.93;;;4.70;;
64619;SDS011;51029;51.058;13.826;2023-07-20T00:07:10;6.47;;;5.67;;
64619;SDS011;51029;51.058;13.826;2023-07-20T00:09:36;6.53;;;5.53;;
64619;SDS011;51029;51.058;13.826;2023-07-20T00:12:01;7.03;;;5.73;;
64619;SDS011;51029;51.058;13.826;2023-07-20T00:14:27;7.17;;;5.70;;
64619;SDS011;51029;51.058;13.826;2023-07-20T00:16:54;7.37;;;5.40;;
64619;SDS011;51029;51.058;13.826;2023-07-20T00:19:21;8.23;;;5.87;;
64619;SDS011;51029;51.058;13.826;2023-07-20T00:21:51;6.70;;;5.40;;
64619;SDS011;51029;51.058;13.826;2023-07-20T00:24:17;6.30;;;5.70;;
64619;SDS011;51029;51.058;13.826;2023-07-20T00:26:43;6.57;;;5.93;;
64619;SDS011;51029;51.058;13.826;2023-07-20T00:29:09;6.40;;;5.67;;
64619;SDS011;51029;51.058;13.826;2023-07-20T00:31:34;6.63;;;6.00;;
64619;SDS011;51029;51.058;13.826;2023-07-20T00:34:02;7.57;;;5.50;;
64619;SDS011;51029;51.058;13.826;2023-07-20T00:36:31;7.27;;;5.00;;
64619;SDS011;51029;51.058;13.826;2023-07-20T00:38:56;6.17;;;5.47;;
64619;SDS011;51029;51.058;13.826;2023-07-20T00:41:22;6.30;;;5.10;;
64619;SDS011;51029;51.058;13.826;2023-07-20T00:43:47;5.83;;;5.23;;
64619;SDS011;51029;51.058;13.826;2023-07-20T00:46:14;7.17;;;5.70;;
64619;SDS011;51029;51.058;13.826;2023-07-20T00:48:40;6.97;;;6.27;;
64619;SDS011;51029;51.058;13.826;2023-07-20T00:51:06;9.67;;;6.27;;
64619;SDS011;51029;51.058;13.826;2023-07-20T00:53:32;7.50;;;5.40;;
64619;SDS011;51029;51.058;13.826;2023-07-20T00:55:58;7.50;;;5.70;;
64619;SDS011;51029;51.058;13.826;2023-07-20T00:58:23;8.27;;;6.20;;
64619;SDS011;51029;51.058;13.826;2023-07-20T01:00:49;6.83;;;5.70;;
64619;SDS011;51029;51.058;13.826;2023-07-20T01:03:16;7.30;;;5.70;;
64619;SDS011;51029;51.058;13.826;2023-07-20T01:05:45;6.00;;;5.40;;
64619;SDS011;51029;51.058;13.826;2023-07-20T01:08:22;6.10;;;5.00;;
64619;SDS011;51029;51.058;13.826;2023-07-20T01:10:54;6.93;;;4.50;;
64619;SDS011;51029;51.058;13.826;2023-07-20T01:13:29;4.80;;;4.30;;
64619;SDS011;51029;51.058;13.826;2023-07-20T01:16:01;8.77;;;4.40;;
64619;SDS011;51029;51.058;13.826;2023-07-20T01:18:27;5.53;;;4.60;;
64619;SDS011;51029;51.058;13.826;2023-07-20T01:20:58;5.77;;;4.10;;
64619;SDS011;51029;51.058;13.826;2023-07-20T01:31:30;5.87;;;3.90;;
64619;SDS011;51029;51.058;13.826;2023-07-20T01:33:58;3.67;;;3.37;;
64619;SDS011;51029;51.058;13.826;2023-07-20T01:36:28;3.97;;;3.40;;
64619;SDS011;51029;51.058;13.826;2023-07-20T01:38:58;3.87;;;3.30;;
64619;SDS011;51029;51.058;13.826;2023-07-20T01:41:24;3.37;;;3.00;;
64619;SDS011;51029;51.058;13.826;2023-07-20T01:43:50;4.00;;;3.30;;
64619;SDS011;51029;51.058;13.826;2023-07-20T01:46:15;4.57;;;3.33;;
64619;SDS011;51029;51.058;13.826;2023-07-20T01:48:41;4.03;;;2.83;;
64619;SDS011;51029;51.058;13.826;2023-07-20T01:51:06;2.87;;;2.50;;
64619;SDS011;51029;51.058;13.826;2023-07-20T01:53:32;2.57;;;2.30;;
64619;SDS011;51029;51.058;13.826;2023-07-20T01:55:58;3.73;;;2.70;;
64619;SDS011;51029;51.058;13.826;2023-07-20T01:58:23;3.67;;;2.53;;
64619;SDS011;51029;51.058;13.826;2023-07-20T02:00:49;3.50;;;2.60;;
64619;SDS011;51029;51.058;13.826;2023-07-20T02:03:15;4.67;;;2.83;;
64619;SDS011;51029;51.058;13.826;2023-07-20T02:05:43;6.47;;;2.83;;
64619;SDS011;51029;51.058;13.826;2023-07-20T02:08:09;4.00;;;3.17;;
64619;SDS011;51029;51.058;13.826;2023-07-20T02:10:35;6.93;;;3.03;;
64619;SDS011;51029;51.058;13.826;2023-07-20T02:13:01;5.80;;;5.37;;
64619;SDS011;51029;51.058;13.826;2023-07-20T02:15:27;3.97;;;2.80;;
64619;SDS011;51029;51.058;13.826;2023-07-20T02:17:53;3.53;;;2.90;;
64619;SDS011;51029;51.058;13.826;2023-07-20T02:20:19;2.93;;;2.60;;
64619;SDS011;51029;51.058;13.826;2023-07-20T02:22:45;5.07;;;3.13;;
64619;SDS011;51029;51.058;13.826;2023-07-20T02:25:10;6.70;;;3.23;;
64619;SDS011;51029;51.058;13.826;2023-07-20T02:27:36;5.90;;;3.00;;
64619;SDS011;51029;51.058;13.826;2023-07-20T02:30:03;4.47;;;3.40;;
64619;SDS011;51029;51.058;13.826;2023-07-20T02:32:29;4.37;;;3.67;;
64619;SDS011;51029;51.058;13.826;2023-07-20T02:34:56;5.00;;;3.53;;
64619;SDS011;51029;51.058;13.826;2023-07-20T02:37:22;6.10;;;3.60;;
64619;SDS011;51029;51.058;13.826;2023-07-20T02:39:48;5.73;;;3.83;;
64619;SDS011;51029;51.058;13.826;2023-07-20T02:42:13;4.43;;;3.80;;
64619;SDS011;51029;51.058;13.826;2023-07-20T02:44:39;5.43;;;3.80;;
64619;SDS011;51029;51.058;13.826;2023-07-20T02:47:05;6.37;;;3.97;;
64619;SDS011;51029;51.058;13.826;2023-07-20T02:49:31;6.40;;;3.87;;
64619;SDS011;51029;51.058;13.826;2023-07-20T02:51:56;8.10;;;4.10;;
64619;SDS011;51029;51.058;13.826;2023-07-20T02:54:22;6.53;;;4.37;;
64619;SDS011;51029;51.058;13.826;2023-07-20T02:56:48;5.83;;;4.57;;
64619;SDS011;51029;51.058;13.826;2023-07-20T02:59:13;4.87;;;4.40;;
64619;SDS011;51029;51.058;13.826;2023-07-20T03:01:39;5.87;;;5.00;;
64619;SDS011;51029;51.058;13.826;2023-07-20T03:04:07;7.27;;;5.20;;
64619;SDS011;51029;51.058;13.826;2023-07-20T03:06:35;6.40;;;5.17;;
64619;SDS011;51029;51.058;13.826;2023-07-20T03:09:01;6.73;;;5.03;;
64619;SDS011;51029;51.058;13.826;2023-07-20T03:11:27;8.13;;;6.10;;
64619;SDS011;51029;51.058;13.826;2023-07-20T03:13:52;7.07;;;5.40;;
64619;SDS011;51029;51.058;13.826;2023-07-20T03:16:18;6.17;;;5.20;;
64619;SDS011;51029;51.058;13.826;2023-07-20T03:18:44;10.17;;;5.33;;
64619;SDS011;51029;51.058;13.826;2023-07-20T03:21:10;8.63;;;5.50;;
64619;SDS011;51029;51.058;13.826;2023-07-20T03:23:37;6.97;;;5.70;;
64619;SDS011;51029;51.058;13.826;2023-07-20T03:26:03;6.90;;;5.33;;
64619;SDS011;51029;51.058;13.826;2023-07-20T03:28:29;6.57;;;5.97;;
64619;SDS011;51029;51.058;13.826;2023-07-20T03:30:57;10.37;;;6.63;;
64619;SDS011;51029;51.058;13.826;2023-07-20T03:33:27;9.63;;;6.40;;
64619;SDS011;51029;51.058;13.826;2023-07-20T03:35:54;8.23;;;6.37;;
64619;SDS011;51029;51.058;13.826;2023-07-20T03:38:20;7.27;;;5.93;;
64619;SDS011;51029;51.058;13.826;2023-07-20T03:41:04;10.80;;;6.03;;
64619;SDS011;51029;51.058;13.826;2023-07-20T03:43:30;8.37;;;6.73;;
64619;SDS011;51029;51.058;13.826;2023-07-20T03:45:55;11.40;;;6.57;;
64619;SDS011;51029;51.058;13.826;2023-07-20T03:48:24;8.13;;;6.73;;
64619;SDS011;51029;51.058;13.826;2023-07-20T03:50:50;10.20;;;7.27;;
64619;SDS011;51029;51.058;13.826;2023-07-20T03:53:17;13.60;;;7.90;;
64619;SDS011;51029;51.058;13.826;2023-07-20T03:55:46;9.43;;;7.23;;
64619;SDS011;51029;51.058;13.826;2023-07-20T03:58:16;10.63;;;6.87;;
64619;SDS011;51029;51.058;13.826;2023-07-20T04:00:45;11.03;;;7.10;;
64619;SDS011;51029;51.058;13.826;2023-07-20T04:03:15;10.27;;;7.03;;
64619;SDS011;51029;51.058;13.826;2023-07-20T04:05:41;11.97;;;8.03;;
64619;SDS011;51029;51.058;13.826;2023-07-20T04:08:07;10.40;;;7.63;;
64619;SDS011;51029;51.058;13.826;2023-07-20T04:10:33;8.70;;;6.60;;
64619;SDS011;51029;51.058;13.826;2023-07-20T04:13:00;10.77;;;7.43;;
64619;SDS011;51029;51.058;13.826;2023-07-20T04:15:25;9.53;;;7.23;;
64619;SDS011;51029;51.058;13.826;2023-07-20T04:17:51;8.47;;;7.30;;
64619;SDS011;51029;51.058;13.826;2023-07-20T04:20:17;9.10;;;7.57;;
64619;SDS011;51029;51.058;13.826;2023-07-20T04:22:43;10.37;;;7.57;;
64619;SDS011;51029;51.058;13.826;2023-07-20T04:25:08;8.67;;;7.57;;
64619;SDS011;51029;51.058;13.826;2023-07-20T04:27:35;10.47;;;7.37;;
64619;SDS011;51029;51.058;13.826;2023-07-20T04:30:01;10.00;;;7.00;;
64619;SDS011;51029;51.058;13.826;2023-07-20T04:32:27;8.67;;;6.27;;
64619;SDS011;51029;51.058;13.826;2023-07-20T04:34:53;7.67;;;6.40;;
64619;SDS011;51029;51.058;13.826;2023-07-20T04:37:18;7.37;;;6.07;;
64619;SDS011;51029;51.058;13.826;2023-07-20T04:39:44;12.30;;;6.60;;
64619;SDS011;51029;51.058;13.826;2023-07-20T04:42:09;10.30;;;6.50;;
64619;SDS011;51029;51.058;13.826;2023-07-20T04:44:35;7.23;;;6.43;;
64619;SDS011;51029;51.058;13.826;2023-07-20T04:47:00;7.83;;;6.43;;
64619;SDS011;51029;51.058;13.826;2023-07-20T04:49:26;8.10;;;6.93;;
64619;SDS011;51029;51.058;13.826;2023-07-20T04:51:51;8.00;;;6.30;;
64619;SDS011;51029;51.058;13.826;2023-07-20T04:54:17;8.23;;;6.43;;
64619;SDS011;51029;51.058;13.826;2023-07-20T04:56:44;15.77;;;10.53;;
64619;SDS011;51029;51.058;13.826;2023-07-20T04:59:09;10.00;;;7.37;;
64619;SDS011;51029;51.058;13.826;2023-07-20T05:01:35;11.80;;;7.30;;
64619;SDS011;51029;51.058;13.826;2023-07-20T05:04:01;10.87;;;7.73;;
64619;SDS011;51029;51.058;13.826;2023-07-20T05:06:27;9.70;;;7.33;;
64619;SDS011;51029;51.058;13.826;2023-07-20T05:08:52;12.17;;;7.93;;
64619;SDS011;51029;51.058;13.826;2023-07-20T05:11:18;9.07;;;8.07;;
64619;SDS011;51029;51.058;13.826;2023-07-20T05:13:43;13.13;;;8.97;;
64619;SDS011;51029;51.058;13.826;2023-07-20T05:16:09;12.10;;;8.07;;
64619;SDS011;51029;51.058;13.826;2023-07-20T05:18:34;10.40;;;8.90;;
64619;SDS011;51029;51.058;13.826;2023-07-20T05:21:00;12.47;;;8.47;;
64619;SDS011;51029;51.058;13.826;2023-07-20T05:23:26;10.77;;;9.27;;
64619;SDS011;51029;51.058;13.826;2023-07-20T05:25:58;14.47;;;8.73;;
64619;SDS011;51029;51.058;13.826;2023-07-20T05:28:24;11.30;;;8.57;;
64619;SDS011;51029;51.058;13.826;2023-07-20T05:30:51;10.83;;;8.30;;
64619;SDS011;51029;51.058;13.826;2023-07-20T05:33:17;13.90;;;8.87;;
64619;SDS011;51029;51.058;13.826;2023-07-20T05:35:44;11.00;;;7.87;;
64619;SDS011;51029;51.058;13.826;2023-07-20T05:38:09;12.73;;;7.37;;
64619;SDS011;51029;51.058;13.826;2023-07-20T05:40:39;11.80;;;7.80;;
64619;SDS011;51029;51.058;13.826;2023-07-20T05:43:06;9.27;;;7.60;;
64619;SDS011;51029;51.058;13.826;2023-07-20T05:45:32;10.70;;;6.80;;
64619;SDS011;51029;51.058;13.826;2023-07-20T05:47:57;9.63;;;7.33;;
64619;SDS011;51029;51.058;13.826;2023-07-20T05:50:23;9.40;;;6.80;;
64619;SDS011;51029;51.058;13.826;2023-07-20T05:52:48;12.77;;;8.77;;
64619;SDS011;51029;51.058;13.826;2023-07-20T05:55:14;8.33;;;6.17;;
64619;SDS011;51029;51.058;13.826;2023-07-20T05:57:40;13.63;;;6.40;;
64619;SDS011;51029;51.058;13.826;2023-07-20T06:00:08;8.17;;;5.63;;
64619;SDS011;51029;51.058;13.826;2023-07-20T06:02:34;7.93;;;5.90;;
64619;SDS011;51029;51.058;13.826;2023-07-20T06:05:00;11.67;;;6.47;;
64619;SDS011;51029;51.058;13.826;2023-07-20T06:07:25;12.07;;;5.83;;
64619;SDS011;51029;51.058;13.826;2023-07-20T06:09:51;9.77;;;6.30;;
64619;SDS011;51029;51.058;13.826;2023-07-20T06:12:17;10.30;;;6.57;;
64619;SDS011;51029;51.058;13.826;2023-07-20T06:14:42;12.40;;;6.17;;
64619;SDS011;51029;51.058;13.826;2023-07-20T06:17:08;10.77;;;6.77;;
64619;SDS011;51029;51.058;13.826;2023-07-20T06:19:33;8.97;;;6.67;;
64619;SDS011;51029;51.058;13.826;2023-07-20T06:22:00;10.13;;;7.07;;
64619;SDS011;51029;51.058;13.826;2023-07-20T06:24:26;8.83;;;6.17;;
64619;SDS011;51029;51.058;13.826;2023-07-20T06:26:51;10.83;;;6.77;;
64619;SDS011;51029;51.058;13.826;2023-07-20T06:29:17;8.90;;;6.60;;
64619;SDS011;51029;51.058;13.826;2023-07-20T06:31:42;7.63;;;6.50;;
64619;SDS011;51029;51.058;13.826;2023-07-20T06:34:08;9.73;;;6.40;;
64619;SDS011;51029;51.058;13.826;2023-07-20T06:36:34;7.50;;;6.70;;
64619;SDS011;51029;51.058;13.826;2023-07-20T06:39:00;8.03;;;6.67;;
64619;SDS011;51029;51.058;13.826;2023-07-20T06:41:27;8.23;;;6.43;;
64619;SDS011;51029;51.058;13.826;2023-07-20T06:43:52;7.73;;;6.93;;
64619;SDS011;51029;51.058;13.826;2023-07-20T06:46:22;10.03;;;6.67;;
64619;SDS011;51029;51.058;13.826;2023-07-20T06:48:49;7.30;;;5.60;;
64619;SDS011;51029;51.058;13.826;2023-07-20T06:51:15;7.93;;;5.33;;
64619;SDS011;51029;51.058;13.826;2023-07-20T06:53:40;9.97;;;5.30;;
64619;SDS011;51029;51.058;13.826;2023-07-20T06:56:06;9.23;;;5.20;;
64619;SDS011;51029;51.058;13.826;2023-07-20T06:58:31;7.40;;;4.70;;
64619;SDS011;51029;51.058;13.826;2023-07-20T07:00:58;6.07;;;4.60;;
64619;SDS011;51029;51.058;13.826;2023-07-20T07:03:23;9.57;;;4.97;;
64619;SDS011;51029;51.058;13.826;2023-07-20T07:05:49;7.77;;;4.33;;
64619;SDS011;51029;51.058;13.826;2023-07-20T07:08:15;5.97;;;4.20;;
64619;SDS011;51029;51.058;13.826;2023-07-20T07:10:41;6.83;;;4.73;;
64619;SDS011;51029;51.058;13.826;2023-07-20T07:13:08;10.97;;;4.50;;
64619;SDS011;51029;51.058;13.826;2023-07-20T07:15:33;5.03;;;4.03;;
64619;SDS011;51029;51.058;13.826;2023-07-20T07:17:59;4.97;;;3.97;;
64619;SDS011;51029;51.058;13.826;2023-07-20T07:20:25;6.03;;;4.53;;
64619;SDS011;51029;51.058;13.826;2023-07-20T07:22:51;7.70;;;4.60;;
64619;SDS011;51029;51.058;13.826;2023-07-20T07:25:17;5.47;;;4.53;;
64619;SDS011;51029;51.058;13.826;2023-07-20T07:27:43;5.03;;;4.63;;
64619;SDS011;51029;51.058;13.826;2023-07-20T07:30:08;7.03;;;4.57;;
64619;SDS011;51029;51.058;13.826;2023-07-20T07:32:34;5.40;;;4.23;;
64619;SDS011;51029;51.058;13.826;2023-07-20T07:35:00;8.30;;;4.50;;
64619;SDS011;51029;51.058;13.826;2023-07-20T07:37:26;8.93;;;4.07;;
64619;SDS011;51029;51.058;13.826;2023-07-20T07:39:51;6.60;;;4.30;;
64619;SDS011;51029;51.058;13.826;2023-07-20T07:42:17;6.33;;;3.73;;
64619;SDS011;51029;51.058;13.826;2023-07-20T07:44:43;4.20;;;3.40;;
64619;SDS011;51029;51.058;13.826;2023-07-20T07:47:09;4.83;;;3.57;;
64619;SDS011;51029;51.058;13.826;2023-07-20T07:49:35;4.07;;;3.23;;
64619;SDS011;51029;51.058;13.826;2023-07-20T07:52:00;3.97;;;3.30;;
64619;SDS011;51029;51.058;13.826;2023-07-20T07:54:27;3.07;;;2.83;;
64619;SDS011;51029;51.058;13.826;2023-07-20T07:56:53;3.13;;;2.77;;
64619;SDS011;51029;51.058;13.826;2023-07-20T07:59:19;3.17;;;2.77;;
64619;SDS011;51029;51.058;13.826;2023-07-20T08:01:44;2.93;;;2.67;;
64619;SDS011;51029;51.058;13.826;2023-07-20T08:04:10;3.07;;;2.60;;
64619;SDS011;51029;51.058;13.826;2023-07-20T08:06:35;3.77;;;2.70;;
64619;SDS011;51029;51.058;13.826;2023-07-20T08:09:01;4.73;;;2.70;;
64619;SDS011;51029;51.058;13.826;2023-07-20T08:11:27;3.87;;;2.80;;
64619;SDS011;51029;51.058;13.826;2023-07-20T08:13:52;3.90;;;3.20;;
64619;SDS011;51029;51.058;13.826;2023-07-20T08:16:18;4.40;;;3.43;;
64619;SDS011;51029;51.058;13.826;2023-07-20T08:18:43;5.73;;;5.13;;
64619;SDS011;51029;51.058;13.826;2023-07-20T08:21:10;5.30;;;3.90;;
64619;SDS011;51029;51.058;13.826;2023-07-20T08:23:36;6.23;;;4.50;;
64619;SDS011;51029;51.058;13.826;2023-07-20T08:26:01;5.30;;;4.50;;
64619;SDS011;51029;51.058;13.826;2023-07-20T08:28:27;5.73;;;4.67;;
64619;SDS011;51029;51.058;13.826;2023-07-20T08:30:54;7.17;;;5.07;;
64619;SDS011;51029;51.058;13.826;2023-07-20T08:33:19;5.40;;;4.80;;
64619;SDS011;51029;51.058;13.826;2023-07-20T08:35:45;5.73;;;5.23;;
64619;SDS011;51029;51.058;13.826;2023-07-20T08:38:11;6.37;;;5.13;;
64619;SDS011;51029;51.058;13.826;2023-07-20T08:40:41;5.70;;;5.20;;
64619;SDS011;51029;51.058;13.826;2023-07-20T08:43:08;6.73;;;5.53;;
64619;SDS011;51029;51.058;13.826;2023-07-20T08:45:38;6.73;;;4.93;;
64619;SDS011;51029;51.058;13.826;2023-07-20T08:48:05;6.17;;;5.63;;
64619;SDS011;51029;51.058;13.826;2023-07-20T08:50:32;9.63;;;5.70;;
64619;SDS011;51029;51.058;13.826;2023-07-20T08:52:58;7.03;;;5.13;;
64619;SDS011;51029;51.058;13.826;2023-07-20T08:55:25;6.80;;;5.73;;
64619;SDS011;51029;51.058;13.826;2023-07-20T08:57:53;6.10;;;5.60;;
64619;SDS011;51029;51.058;13.826;2023-07-20T09:00:21;6.40;;;5.90;;
64619;SDS011;51029;51.058;13.826;2023-07-20T09:02:48;6.90;;;5.60;;
64619;SDS011;51029;51.058;13.826;2023-07-20T09:05:18;5.77;;;5.10;;
64619;SDS011;51029;51.058;13.826;2023-07-20T09:07:45;5.90;;;5.33;;
64619;SDS011;51029;51.058;13.826;2023-07-20T09:10:11;8.93;;;5.63;;
64619;SDS011;51029;51.058;13.826;2023-07-20T09:12:38;6.40;;;5.03;;
64619;SDS011;51029;51.058;13.826;2023-07-20T09:15:05;5.37;;;4.40;;
64619;SDS011;51029;51.058;13.826;2023-07-20T09:17:31;5.00;;;4.33;;
64619;SDS011;51029;51.058;13.826;2023-07-20T09:19:57;4.40;;;4.00;;
64619;SDS011;51029;51.058;13.826;2023-07-20T09:22:29;4.33;;;4.00;;
64619;SDS011;51029;51.058;13.826;2023-07-20T09:24:56;4.00;;;3.60;;
64619;SDS011;51029;51.058;13.826;2023-07-20T09:27:22;4.90;;;3.73;;
64619;SDS011;51029;51.058;13.826;2023-07-20T09:29:48;4.07;;;3.30;;
64619;SDS011;51029;51.058;13.826;2023-07-20T09:32:17;4.27;;;3.90;;
64619;SDS011;51029;51.058;13.826;2023-07-20T09:34:44;3.90;;;3.60;;
64619;SDS011;51029;51.058;13.826;2023-07-20T09:37:09;4.43;;;3.87;;
64619;SDS011;51029;51.058;13.826;2023-07-20T09:39:42;6.33;;;4.17;;
64619;SDS011;51029;51.058;13.826;2023-07-20T09:42:11;6.10;;;3.73;;
64619;SDS011;51029;51.058;13.826;2023-07-20T09:44:42;4.60;;;3.30;;
64619;SDS011;51029;51.058;13.826;2023-07-20T09:47:08;4.30;;;3.73;;
64619;SDS011;51029;51.058;13.826;2023-07-20T09:49:40;7.40;;;5.80;;
64619;SDS011;51029;51.058;13.826;2023-07-20T09:52:07;4.33;;;3.70;;
64619;SDS011;51029;51.058;13.826;2023-07-20T09:54:34;5.73;;;3.77;;
64619;SDS011;51029;51.058;13.826;2023-07-20T09:57:03;3.43;;;3.13;;
64619;SDS011;51029;51.058;13.826;2023-07-20T09:59:33;3.97;;;3.57;;
64619;SDS011;51029;51.058;13.826;2023-07-20T10:01:59;4.20;;;3.70;;
64619;SDS011;51029;51.058;13.826;2023-07-20T10:04:28;4.73;;;4.00;;
64619;SDS011;51029;51.058;13.826;2023-07-20T10:06:55;4.13;;;3.70;;
64619;SDS011;51029;51.058;13.826;2023-07-20T10:09:24;4.67;;;4.27;;
64619;SDS011;51029;51.058;13.826;2023-07-20T10:11:51;5.73;;;5.23;;
64619;SDS011;51029;51.058;13.826;2023-07-20T10:14:19;7.40;;;6.20;;
64619;SDS011;51029;51.058;13.826;2023-07-20T10:16:46;7.97;;;6.73;;
64619;SDS011;51029;51.058;13.826;2023-07-20T10:22:12;13.07;;;11.63;;
64619;SDS011;51029;51.058;13.826;2023-07-20T10:24:41;13.77;;;12.37;;
64619;SDS011;51029;51.058;13.826;2023-07-20T10:27:09;13.10;;;12.10;;
64619;SDS011;51029;51.058;13.826;2023-07-20T10:29:35;11.20;;;10.10;;
64619;SDS011;51029;51.058;13.826;2023-07-20T10:32:02;11.93;;;10.93;;
64619;SDS011;51029;51.058;13.826;2023-07-20T10:34:28;7.90;;;7.23;;
64619;SDS011;51029;51.058;13.826;2023-07-20T10:36:54;8.50;;;7.80;;
64619;SDS011;51029;51.058;13.826;2023-07-20T10:39:23;7.00;;;6.37;;
64619;SDS011;51029;51.058;13.826;2023-07-20T10:41:59;5.50;;;5.07;;
64619;SDS011;51029;51.058;13.826;2023-07-20T10:44:28;6.83;;;6.23;;
64619;SDS011;51029;51.058;13.826;2023-07-20T10:46:58;6.00;;;5.50;;
64619;SDS011;51029;51.058;13.826;2023-07-20T10:49:25;6.30;;;5.70;;
64619;SDS011;51029;51.058;13.826;2023-07-20T10:51:58;6.53;;;5.93;;
64619;SDS011;51029;51.058;13.826;2023-07-20T10:56:50;4.90;;;4.30;;
64619;SDS011;51029;51.058;13.826;2023-07-20T11:02:00;3.83;;;3.53;;
64619;SDS011;51029;51.058;13.826;2023-07-20T11:04:41;3.93;;;3.33;;
64619;SDS011;51029;51.058;13.826;2023-07-20T11:07:09;3.60;;;3.30;;
64619;SDS011;51029;51.058;13.826;2023-07-20T11:09:35;3.13;;;2.80;;
64619;SDS011;51029;51.058;13.826;2023-07-20T11:12:11;3.40;;;3.10;;
64619;SDS011;51029;51.058;13.826;2023-07-20T11:14:41;3.93;;;3.50;;
64619;SDS011;51029;51.058;13.826;2023-07-20T11:17:12;5.00;;;3.40;;
64619;SDS011;51029;51.058;13.826;2023-07-20T11:19:38;3.50;;;3.03;;
64619;SDS011;51029;51.058;13.826;2023-07-20T11:22:05;3.77;;;3.47;;
64619;SDS011;51029;51.058;13.826;2023-07-20T11:24:36;3.40;;;3.10;;
64619;SDS011;51029;51.058;13.826;2023-07-20T11:27:04;4.23;;;3.93;;
64619;SDS011;51029;51.058;13.826;2023-07-20T11:29:30;4.93;;;3.93;;
64619;SDS011;51029;51.058;13.826;2023-07-20T11:31:56;3.63;;;3.30;;
64619;SDS011;51029;51.058;13.826;2023-07-20T11:34:23;3.27;;;3.07;;
64619;SDS011;51029;51.058;13.826;2023-07-20T11:36:50;3.30;;;3.00;;
64619;SDS011;51029;51.058;13.826;2023-07-20T11:39:16;3.87;;;3.40;;
64619;SDS011;51029;51.058;13.826;2023-07-20T11:41:47;3.17;;;2.87;;
64619;SDS011;51029;51.058;13.826;2023-07-20T11:44:17;3.45;;;2.10;;
64619;SDS011;51029;51.058;13.826;2023-07-20T11:46:43;2.65;;;1.83;;
64619;SDS011;51029;51.058;13.826;2023-07-20T11:49:09;2.30;;;2.10;;
64619;SDS011;51029;51.058;13.826;2023-07-20T11:51:35;2.22;;;2.03;;
64619;SDS011;51029;51.058;13.826;2023-07-20T11:54:02;2.65;;;1.95;;
64619;SDS011;51029;51.058;13.826;2023-07-20T11:56:29;2.28;;;2.03;;
64619;SDS011;51029;51.058;13.826;2023-07-20T11:58:56;2.05;;;1.90;;
64619;SDS011;51029;51.058;13.826;2023-07-20T12:01:24;2.78;;;2.20;;
64619;SDS011;51029;51.058;13.826;2023-07-20T12:03:54;2.63;;;2.20;;
64619;SDS011;51029;51.058;13.826;2023-07-20T12:06:25;2.60;;;2.40;;
64619;SDS011;51029;51.058;13.826;2023-07-20T12:08:53;2.72;;;2.53;;
64619;SDS011;51029;51.058;13.826;2023-07-20T12:11:34;3.17;;;2.88;;
64619;SDS011;51029;51.058;13.826;2023-07-20T12:14:00;4.28;;;2.70;;
64619;SDS011;51029;51.058;13.826;2023-07-20T12:16:27;3.50;;;2.70;;
64619;SDS011;51029;51.058;13.826;2023-07-20T12:21:27;2.90;;;2.70;;
64619;SDS011;51029;51.058;13.826;2023-07-20T12:23:56;3.77;;;2.63;;
64619;SDS011;51029;51.058;13.826;2023-07-20T12:26:23;3.30;;;3.10;;
64619;SDS011;51029;51.058;13.826;2023-07-20T12:28:50;3.83;;;3.30;;
64619;SDS011;51029;51.058;13.826;2023-07-20T12:31:16;3.50;;;3.20;;
64619;SDS011;51029;51.058;13.826;2023-07-20T12:33:42;4.20;;;3.90;;
64619;SDS011;51029;51.058;13.826;2023-07-20T12:36:08;5.90;;;4.50;;
64619;SDS011;51029;51.058;13.826;2023-07-20T12:38:35;4.63;;;4.13;;
64619;SDS011;51029;51.058;13.826;2023-07-20T12:41:01;6.23;;;4.57;;
64619;SDS011;51029;51.058;13.826;2023-07-20T12:43:27;4.70;;;4.30;;
64619;SDS011;51029;51.058;13.826;2023-07-20T12:45:53;5.57;;;5.00;;
64619;SDS011;51029;51.058;13.826;2023-07-20T12:48:18;4.80;;;4.40;;
64619;SDS011;51029;51.058;13.826;2023-07-20T12:50:44;4.60;;;4.20;;
64619;SDS011;51029;51.058;13.826;2023-07-20T12:53:09;5.20;;;4.70;;
64619;SDS011;51029;51.058;13.826;2023-07-20T12:55:35;4.60;;;4.10;;
64619;SDS011;51029;51.058;13.826;2023-07-20T12:58:00;4.97;;;4.57;;
64619;SDS011;51029;51.058;13.826;2023-07-20T13:00:26;4.07;;;3.73;;
64619;SDS011;51029;51.058;13.826;2023-07-20T13:02:52;5.17;;;4.10;;
64619;SDS011;51029;51.058;13.826;2023-07-20T13:05:17;5.07;;;4.20;;
64619;SDS011;51029;51.058;13.826;2023-07-20T13:07:43;4.23;;;3.83;;
64619;SDS011;51029;51.058;13.826;2023-07-20T13:10:09;3.93;;;3.53;;
64619;SDS011;51029;51.058;13.826;2023-07-20T13:12:36;4.03;;;3.70;;
64619;SDS011;51029;51.058;13.826;2023-07-20T13:15:03;4.10;;;3.80;;
64619;SDS011;51029;51.058;13.826;2023-07-20T13:17:33;4.00;;;3.60;;
64619;SDS011;51029;51.058;13.826;2023-07-20T13:20:00;4.00;;;3.70;;
64619;SDS011;51029;51.058;13.826;2023-07-20T13:22:26;4.10;;;3.80;;
64619;SDS011;51029;51.058;13.826;2023-07-20T13:24:52;4.00;;;3.43;;
64619;SDS011;51029;51.058;13.826;2023-07-20T13:27:18;3.83;;;3.53;;
64619;SDS011;51029;51.058;13.826;2023-07-20T13:29:44;3.60;;;3.30;;
64619;SDS011;51029;51.058;13.826;2023-07-20T13:32:10;3.43;;;2.87;;
64619;SDS011;51029;51.058;13.826;2023-07-20T13:34:38;3.30;;;3.00;;
64619;SDS011;51029;51.058;13.826;2023-07-20T13:37:04;3.60;;;2.60;;
64619;SDS011;51029;51.058;13.826;2023-07-20T13:39:30;2.67;;;2.47;;
64619;SDS011;51029;51.058;13.826;2023-07-20T13:41:55;3.50;;;3.20;;
64619;SDS011;51029;51.058;13.826;2023-07-20T13:44:21;3.10;;;2.90;;
64619;SDS011;51029;51.058;13.826;2023-07-20T13:46:47;3.07;;;2.77;;
64619;SDS011;51029;51.058;13.826;2023-07-20T13:49:13;3.10;;;2.80;;
64619;SDS011;51029;51.058;13.826;2023-07-20T13:51:39;3.30;;;2.30;;
64619;SDS011;51029;51.058;13.826;2023-07-20T13:54:06;3.83;;;2.87;;
64619;SDS011;51029;51.058;13.826;2023-07-20T13:56:31;3.10;;;2.73;;
64619;SDS011;51029;51.058;13.826;2023-07-20T13:58:57;4.20;;;2.47;;
64619;SDS011;51029;51.058;13.826;2023-07-20T14:01:22;2.77;;;2.57;;
64619;SDS011;51029;51.058;13.826;2023-07-20T14:03:49;2.30;;;1.90;;
64619;SDS011;51029;51.058;13.826;2023-07-20T14:06:15;2.53;;;2.33;;
64619;SDS011;51029;51.058;13.826;2023-07-20T14:08:41;3.03;;;2.20;;
64619;SDS011;51029;51.058;13.826;2023-07-20T14:11:07;2.43;;;1.90;;
64619;SDS011;51029;51.058;13.826;2023-07-20T14:13:32;2.93;;;2.20;;
64619;SDS011;51029;51.058;13.826;2023-07-20T14:15:58;2.30;;;2.10;;
64619;SDS011;51029;51.058;13.826;2023-07-20T14:18:24;2.23;;;1.93;;
64619;SDS011;51029;51.058;13.826;2023-07-20T14:20:49;3.40;;;2.23;;
64619;SDS011;51029;51.058;13.826;2023-07-20T14:23:15;3.50;;;2.33;;
64619;SDS011;51029;51.058;13.826;2023-07-20T14:25:40;2.30;;;2.10;;
64619;SDS011;51029;51.058;13.826;2023-07-20T14:28:07;2.20;;;1.80;;
64619;SDS011;51029;51.058;13.826;2023-07-20T14:30:32;3.57;;;1.90;;
64619;SDS011;51029;51.058;13.826;2023-07-20T14:32:58;2.70;;;1.90;;
64619;SDS011;51029;51.058;13.826;2023-07-20T14:35:24;2.30;;;2.10;;
64619;SDS011;51029;51.058;13.826;2023-07-20T14:37:49;1.97;;;1.87;;
64619;SDS011;51029;51.058;13.826;2023-07-20T14:40:15;2.30;;;1.77;;
64619;SDS011;51029;51.058;13.826;2023-07-20T14:42:41;2.50;;;1.83;;
64619;SDS011;51029;51.058;13.826;2023-07-20T14:45:06;2.67;;;1.90;;
64619;SDS011;51029;51.058;13.826;2023-07-20T14:47:33;1.93;;;1.50;;
64619;SDS011;51029;51.058;13.826;2023-07-20T14:50:00;1.80;;;1.70;;